Time;durP1;ratioP1;P1;durP2;ratioP2;P2;SDS_P1;SDS_P2;PMS_P1;PMS_P2;Temp;Humidity;BMP_temperature;BMP_pressure;BME280_temperature;BME280_humidity;BME280_pressure;Samples;Min_cycle;Max_cycle;Signal;HPM_P1;HPM_P2
2022/08/06 00:01:43;;;;;;;1.85;0.90;;;;;;;17.73;61.20;99553.66;5055531;28;20024;-77
2022/08/06 00:04:09;;;;;;;3.85;0.98;;;;;;;17.56;61.22;99520.78;5073431;28;20475;-78
2022/08/06 00:06:34;;;;;;;3.47;0.90;;;;;;;17.63;60.93;99542.88;5072865;28;20028;-77
2022/08/06 00:08:59;;;;;;;4.03;0.98;;;;;;;17.57;61.30;99555.59;5055299;28;20033;-77
2022/08/06 00:11:25;;;;;;;0.82;0.73;;;;;;;17.08;61.83;99549.28;5072991;28;20024;-77
2022/08/06 00:13:50;;;;;;;1.42;0.77;;;;;;;16.76;62.14;99564.94;5072906;28;20044;-77
2022/08/06 00:16:16;;;;;;;1.40;0.93;;;;;;;16.35;62.57;99581.09;5071798;28;20025;-77
2022/08/06 00:18:41;;;;;;;0.95;0.70;;;;;;;17.04;63.07;99567.06;5072977;28;20058;-77
2022/08/06 00:21:07;;;;;;;4.65;0.98;;;;;;;17.32;61.74;99568.34;5072577;28;20035;-77
2022/08/06 00:23:33;;;;;;;1.40;0.95;;;;;;;17.53;61.61;99586.13;5071865;28;20060;-77
2022/08/06 00:25:58;;;;;;;2.22;0.75;;;;;;;17.50;61.23;99595.56;5071654;28;20468;-77
2022/08/06 00:28:25;;;;;;;3.10;0.90;;;;;;;17.24;61.91;99591.31;5072517;28;20020;-77
2022/08/06 00:30:50;;;;;;;1.17;0.80;;;;;;;16.80;62.13;99574.09;5071769;28;20042;-77
2022/08/06 00:33:16;;;;;;;0.70;0.70;;;;;;;17.31;61.75;99593.72;5055153;28;20025;-77
2022/08/06 00:35:42;;;;;;;1.65;0.80;;;;;;;17.23;62.04;99598.56;5072550;28;20395;-77
2022/08/06 00:38:08;;;;;;;1.48;0.80;;;;;;;17.34;61.47;99580.50;5071186;28;20032;-77
2022/08/06 00:40:33;;;;;;;1.40;0.70;;;;;;;17.30;61.64;99592.91;5072841;28;20483;-77
2022/08/06 00:43:02;;;;;;;2.45;1.15;;;;;;;17.17;61.28;99588.06;5071231;28;20055;-77
2022/08/06 00:45:29;;;;;;;3.58;1.73;;;;;;;16.38;63.57;99612.88;5071368;28;20035;-77
2022/08/06 00:47:55;;;;;;;2.72;0.98;;;;;;;16.57;63.97;99593.53;5072064;28;20025;-78
2022/08/06 00:50:20;;;;;;;1.67;0.90;;;;;;;16.47;62.69;99595.09;5037822;28;20028;-77
2022/08/06 00:52:46;;;;;;;2.25;1.30;;;;;;;16.89;62.60;99591.34;5054449;28;20029;-77
2022/08/06 00:55:12;;;;;;;2.33;0.82;;;;;;;17.07;61.79;99615.06;5071414;28;20591;-79
2022/08/06 00:57:38;;;;;;;1.40;1.00;;;;;;;17.04;61.65;99607.50;5070933;28;20105;-77
2022/08/06 01:00:05;;;;;;;1.25;1.15;;;;;;;17.16;61.16;99624.25;5072351;28;20075;-77
2022/08/06 01:02:30;;;;;;;0.90;0.80;;;;;;;17.16;61.31;99619.66;5071195;28;20401;-77
2022/08/06 01:04:56;;;;;;;2.22;1.10;;;;;;;16.94;61.88;99600.25;5072307;28;20025;-77
2022/08/06 01:07:21;;;;;;;1.27;0.68;;;;;;;16.98;61.82;99605.91;5054218;28;20037;-77
2022/08/06 01:09:48;;;;;;;2.88;0.95;;;;;;;17.05;61.59;99617.25;5072719;28;20028;-77
2022/08/06 01:12:14;;;;;;;0.73;0.73;;;;;;;17.01;61.64;99616.16;5071245;28;20104;-77
2022/08/06 01:14:39;;;;;;;2.47;0.93;;;;;;;16.98;61.26;99617.50;5071125;28;20452;-77
2022/08/06 01:17:23;;;;;;;0.98;0.80;;;;;;;16.98;61.38;99627.50;5053979;28;20427;-77
2022/08/06 01:20:02;;;;;;;1.15;1.00;;;;;;;16.85;61.62;99620.75;5070789;28;20060;-77
2022/08/06 01:22:56;;;;;;;2.15;1.10;;;;;;;16.77;61.89;99631.28;5071096;28;20017;-77
2022/08/06 01:25:47;;;;;;;2.05;1.20;;;;;;;16.90;61.79;99628.03;5070882;28;20052;-77
2022/08/06 01:28:20;;;;;;;0.90;0.90;;;;;;;16.79;61.46;99618.34;5072371;28;20020;-77
2022/08/06 01:30:57;;;;;;;1.52;0.90;;;;;;;16.82;61.65;99634.78;5072201;28;20063;-77
2022/08/06 01:33:30;;;;;;;2.17;1.05;;;;;;;16.77;61.51;99626.69;5071134;28;20415;-77
2022/08/06 01:36:01;;;;;;;1.48;0.88;;;;;;;16.69;61.65;99610.22;5071240;28;20043;-77
2022/08/06 01:38:33;;;;;;;1.33;0.95;;;;;;;16.73;61.27;99627.50;5072071;28;20028;-77
2022/08/06 01:41:04;;;;;;;0.80;0.77;;;;;;;16.70;61.48;99619.94;5072112;28;20055;-77
2022/08/06 01:43:32;;;;;;;0.85;0.80;;;;;;;16.54;62.05;99618.31;5070588;28;20036;-77
2022/08/06 01:45:59;;;;;;;1.45;1.00;;;;;;;16.56;61.76;99621.53;5070654;28;20078;-77
2022/08/06 01:48:27;;;;;;;3.38;1.92;;;;;;;16.56;61.72;99637.72;5053973;28;20056;-77
2022/08/06 01:50:56;;;;;;;4.10;1.10;;;;;;;16.50;61.77;99626.13;5071957;28;20111;-77
2022/08/06 01:53:41;;;;;;;1.95;1.00;;;;;;;16.48;61.94;99623.69;5070896;28;20020;-77
2022/08/06 01:56:10;;;;;;;1.50;1.40;;;;;;;16.59;61.86;99646.09;5071074;28;20048;-77
2022/08/06 01:58:42;;;;;;;1.55;0.77;;;;;;;16.54;61.58;99634.47;5070479;28;20085;-77
2022/08/06 02:01:11;;;;;;;1.95;0.80;;;;;;;16.46;61.68;99635.78;5073043;28;20028;-77
2022/08/06 02:03:49;;;;;;;1.48;0.80;;;;;;;16.21;61.92;99620.38;5058195;28;20093;-77
2022/08/06 02:06:18;;;;;;;1.65;0.85;;;;;;;16.43;62.17;99639.81;5074727;28;20437;-77
2022/08/06 02:08:46;;;;;;;1.60;0.70;;;;;;;16.40;61.79;99647.66;5075641;28;20048;-77
2022/08/06 02:11:11;;;;;;;1.02;0.85;;;;;;;16.40;61.78;99658.44;5074378;28;20381;-77
2022/08/06 02:13:40;;;;;;;2.80;0.73;;;;;;;16.34;61.98;99649.50;5074390;28;20023;-78
2022/08/06 02:16:07;;;;;;;1.20;1.10;;;;;;;16.32;62.05;99640.88;5074407;28;20040;-77
2022/08/06 02:18:37;;;;;;;1.00;0.93;;;;;;;16.32;62.03;99648.16;5074132;28;20032;-77
2022/08/06 02:21:06;;;;;;;0.98;0.98;;;;;;;16.23;62.01;99669.41;5074049;28;20024;-77
2022/08/06 02:23:32;;;;;;;5.68;1.23;;;;;;;15.25;64.54;99646.03;5074312;28;20044;-77
2022/08/06 02:26:00;;;;;;;5.07;1.25;;;;;;;14.56;65.69;99653.28;5057398;28;20416;-77
2022/08/06 02:28:27;;;;;;;3.33;1.30;;;;;;;14.09;68.17;99662.94;5074100;28;20029;-77
2022/08/06 02:30:55;;;;;;;2.80;0.98;;;;;;;14.29;67.67;99660.50;5074341;28;20021;-77
2022/08/06 02:33:21;;;;;;;1.63;1.05;;;;;;;15.27;64.75;99651.94;5074157;28;20037;-77
2022/08/06 02:36:14;;;;;;;3.00;1.38;;;;;;;15.58;63.92;99655.66;5075363;28;20511;-77
2022/08/06 02:38:48;;;;;;;2.13;0.82;;;;;;;15.69;63.46;99668.13;5073749;28;20029;-77
2022/08/06 02:41:17;;;;;;;1.75;0.80;;;;;;;15.93;62.96;99671.19;5075069;28;20035;-77
2022/08/06 02:43:50;;;;;;;1.40;1.00;;;;;;;15.92;62.69;99654.25;5073892;28;20552;-77
2022/08/06 02:46:39;;;;;;;0.80;0.80;;;;;;;15.66;62.76;99665.97;5073889;28;20032;-77
2022/08/06 02:49:16;;;;;;;1.13;0.98;;;;;;;15.70;63.06;99657.06;5075018;28;20488;-77
2022/08/06 02:51:58;;;;;;;1.88;0.80;;;;;;;15.14;64.47;99670.41;5074916;28;20059;-79
2022/08/06 02:54:42;;;;;;;1.20;0.90;;;;;;;15.79;63.14;99684.34;5074947;28;20055;-77
2022/08/06 02:57:13;;;;;;;1.30;0.90;;;;;;;15.85;62.89;99674.38;5074935;28;20017;-77
2022/08/06 02:59:45;;;;;;;2.45;0.77;;;;;;;15.87;62.52;99667.66;5057247;28;20043;-79
2022/08/06 03:02:12;;;;;;;1.10;1.10;;;;;;;15.94;62.26;99692.47;5073520;28;20099;-77
2022/08/06 03:04:42;;;;;;;1.48;0.85;;;;;;;15.95;62.22;99683.31;5073401;28;20024;-77
2022/08/06 03:07:12;;;;;;;0.98;0.82;;;;;;;15.93;61.85;99684.66;5073430;28;20028;-77
2022/08/06 03:09:40;;;;;;;2.42;1.20;;;;;;;15.91;62.50;99693.00;5073671;28;20020;-77
2022/08/06 03:12:08;;;;;;;0.70;0.70;;;;;;;15.95;62.14;99694.09;5073311;28;20024;-77
2022/08/06 03:14:35;;;;;;;0.80;0.80;;;;;;;15.80;61.85;99691.31;5074688;28;20029;-77
2022/08/06 03:17:01;;;;;;;0.60;0.60;;;;;;;15.74;62.43;99687.00;5074643;28;20396;-77
2022/08/06 03:19:28;;;;;;;1.10;0.82;;;;;;;15.84;62.47;99705.06;5074687;28;20028;-77
2022/08/06 03:21:56;;;;;;;1.23;1.13;;;;;;;15.23;63.37;99703.81;5073204;28;20082;-77
2022/08/06 03:24:23;;;;;;;1.58;0.90;;;;;;;14.61;64.82;99698.19;5072860;28;20032;-77
2022/08/06 03:26:50;;;;;;;1.98;0.90;;;;;;;15.13;64.56;99715.34;5073029;28;20412;-77
2022/08/06 03:29:15;;;;;;;0.70;0.70;;;;;;;15.27;64.13;99713.00;5072987;28;20027;-77
2022/08/06 03:31:41;;;;;;;2.05;0.80;;;;;;;15.30;63.46;99709.81;5073016;28;20416;-77
2022/08/06 03:34:07;;;;;;;2.30;1.10;;;;;;;15.41;63.13;99715.00;5073240;28;20024;-77
2022/08/06 03:36:35;;;;;;;1.02;0.73;;;;;;;15.53;63.14;99712.16;5056245;28;20044;-77
2022/08/06 03:39:05;;;;;;;1.85;1.13;;;;;;;15.57;62.94;99730.19;5055906;28;20037;-77
2022/08/06 03:41:36;;;;;;;1.10;1.00;;;;;;;15.61;62.86;99714.38;5074035;28;20097;-77
2022/08/06 03:44:03;;;;;;;1.23;0.80;;;;;;;15.02;63.25;99719.81;5073861;28;20032;-77
2022/08/06 03:46:38;;;;;;;5.22;1.48;;;;;;;15.09;63.68;99732.22;5072518;28;20033;-77
2022/08/06 03:49:08;;;;;;;0.90;0.90;;;;;;;15.38;63.19;99720.09;5072700;28;20474;-77
2022/08/06 03:51:35;;;;;;;0.68;0.68;;;;;;;15.48;62.57;99718.31;5073687;28;20403;-77
2022/08/06 03:54:01;;;;;;;1.88;1.48;;;;;;;15.37;62.57;99705.03;5072374;28;20040;-77
2022/08/06 03:56:28;;;;;;;5.40;0.90;;;;;;;15.45;62.49;99732.28;5072541;28;20036;-77
2022/08/06 03:58:59;;;;;;;0.57;0.57;;;;;;;14.92;63.85;99719.72;5072655;28;20053;-78
2022/08/06 04:01:27;;;;;;;0.98;0.88;;;;;;;14.45;65.67;99747.44;5055989;28;20527;-77
2022/08/06 04:03:54;;;;;;;2.60;1.25;;;;;;;14.22;66.48;99732.34;5089317;28;20032;-77
2022/08/06 04:06:21;;;;;;;2.22;1.23;;;;;;;13.87;67.58;99734.59;5055670;28;20036;-76
2022/08/06 04:08:48;;;;;;;1.05;0.90;;;;;;;14.30;66.19;99740.03;5072165;28;20427;-77
2022/08/06 04:11:15;;;;;;;1.17;0.95;;;;;;;14.81;64.44;99734.13;5072083;28;20074;-77
2022/08/06 04:13:42;;;;;;;3.30;1.17;;;;;;;14.43;66.52;99755.75;5073467;28;20093;-77
2022/08/06 04:16:08;;;;;;;0.90;0.90;;;;;;;14.75;65.12;99737.00;5072159;28;20090;-77
2022/08/06 04:18:37;;;;;;;1.08;0.90;;;;;;;14.29;67.13;99749.13;5071600;28;20025;-77
2022/08/06 04:21:06;;;;;;;3.55;1.83;;;;;;;12.87;71.24;99761.41;5073311;28;20392;-76
2022/08/06 04:23:31;;;;;;;2.25;1.48;;;;;;;12.52;72.48;99776.81;5072618;28;20041;-79
2022/08/06 04:26:01;;;;;;;1.58;1.48;;;;;;;13.03;71.43;99773.19;5073336;28;20016;-78
2022/08/06 04:28:28;;;;;;;2.70;1.48;;;;;;;13.50;70.79;99769.19;5073274;28;20028;-79
2022/08/06 04:30:56;;;;;;;1.65;1.55;;;;;;;13.07;72.52;99777.88;5088639;28;20022;-79
2022/08/06 04:33:24;;;;;;;5.13;1.40;;;;;;;12.87;73.18;99766.75;5055468;28;20606;-78
2022/08/06 04:35:50;;;;;;;2.30;1.40;;;;;;;13.19;72.89;99773.25;5055580;28;20032;-79
2022/08/06 04:38:17;;;;;;;2.58;1.20;;;;;;;13.41;72.87;99789.47;5071254;28;20472;-79
2022/08/06 04:40:43;;;;;;;1.83;1.70;;;;;;;13.40;72.51;99788.63;5073024;28;20492;-79
2022/08/06 04:43:11;;;;;;;3.42;1.40;;;;;;;13.32;73.32;99794.38;5071707;28;20032;-79
2022/08/06 04:45:39;;;;;;;2.03;1.50;;;;;;;13.25;74.12;99783.03;5073055;28;20032;-79
2022/08/06 04:48:08;;;;;;;2.85;1.50;;;;;;;13.04;73.96;99791.72;5071416;28;20048;-78
2022/08/06 04:50:34;;;;;;;6.68;1.60;;;;;;;13.22;74.51;99791.53;5071551;28;20405;-79
2022/08/06 04:53:16;;;;;;;4.97;1.17;;;;;;;13.73;72.57;99801.22;5071479;28;20384;-79
2022/08/06 04:55:43;;;;;;;1.58;1.40;;;;;;;14.49;68.57;99789.66;5072582;28;20028;-79
2022/08/06 04:58:11;;;;;;;4.90;1.50;;;;;;;14.68;68.39;99799.03;5071212;28;20020;-79
2022/08/06 05:00:40;;;;;;;5.10;1.75;;;;;;;14.45;70.03;99811.91;5072444;28;20173;-79
2022/08/06 05:03:05;;;;;;;3.97;1.83;;;;;;;13.98;71.85;99822.22;5071263;28;20025;-79
2022/08/06 05:05:37;;;;;;;4.53;2.00;;;;;;;13.15;74.14;99806.97;5054691;28;20040;-79
2022/08/06 05:08:06;;;;;;;5.22;1.90;;;;;;;13.04;74.36;99828.44;5072535;28;20027;-79
2022/08/06 05:10:39;;;;;;;7.22;2.17;;;;;;;12.70;75.72;99814.94;5054577;28;20051;-78
2022/08/06 05:13:06;;;;;;;3.70;1.73;;;;;;;13.15;74.29;99828.41;5072541;28;20026;-79
2022/08/06 05:15:36;;;;;;;2.40;2.20;;;;;;;13.11;74.44;99827.25;5071330;28;20028;-78
2022/08/06 05:18:09;;;;;;;5.18;2.17;;;;;;;13.14;74.94;99839.38;5071312;28;20140;-79
2022/08/06 05:20:42;;;;;;;5.03;2.13;;;;;;;13.34;74.28;99837.88;5072610;28;20052;-79
2022/08/06 05:23:20;;;;;;;5.22;2.35;;;;;;;13.51;73.98;99830.66;5072304;28;20384;-79
2022/08/06 05:25:47;;;;;;;6.30;2.72;;;;;;;13.41;73.62;99827.00;5054753;28;20035;-79
2022/08/06 05:28:13;;;;;;;2.25;2.10;;;;;;;13.25;74.69;99811.69;5054329;28;20060;-79
2022/08/06 05:30:46;;;;;;;3.75;2.45;;;;;;;13.55;74.83;99841.69;5071013;28;20082;-79
2022/08/06 05:33:31;;;;;;;3.70;2.83;;;;;;;13.61;74.33;99846.09;5072546;28;20123;-79
2022/08/06 05:35:58;;;;;;;5.97;2.85;;;;;;;13.40;74.18;99847.63;5074420;28;20043;-79
2022/08/06 05:38:25;;;;;;;3.38;2.25;;;;;;;13.50;74.70;99850.47;5058047;28;20032;-79
2022/08/06 05:40:51;;;;;;;7.25;2.58;;;;;;;13.36;75.94;99826.91;5075131;28;20028;-79
2022/08/06 05:43:17;;;;;;;3.53;2.10;;;;;;;13.35;74.16;99838.66;5074900;28;20484;-78
2022/08/06 05:45:44;;;;;;;2.63;2.42;;;;;;;13.44;75.36;99848.78;5076237;28;20111;-79
2022/08/06 05:48:12;;;;;;;2.70;2.30;;;;;;;13.98;73.75;99833.78;5075914;28;20033;-79
2022/08/06 05:50:43;;;;;;;3.83;2.20;;;;;;;13.74;74.87;99836.91;5074951;28;20059;-79
2022/08/06 05:53:17;;;;;;;4.63;2.17;;;;;;;13.41;75.00;99840.41;5075070;28;20044;-79
2022/08/06 05:55:57;;;;;;;6.28;1.98;;;;;;;13.24;76.18;99837.69;5074620;28;20089;-78
2022/08/06 05:58:36;;;;;;;4.30;1.60;;;;;;;14.50;72.42;99853.09;5075773;28;20032;-79
2022/08/06 06:01:05;;;;;;;2.70;2.05;;;;;;;14.43;73.15;99835.53;5075907;28;20033;-78
2022/08/06 06:03:31;;;;;;;3.42;1.90;;;;;;;14.61;71.97;99851.34;5074404;28;20513;-79
2022/08/06 06:05:59;;;;;;;1.88;1.77;;;;;;;14.33;72.51;99855.00;5057603;28;20428;-79
2022/08/06 06:08:25;;;;;;;3.35;2.80;;;;;;;13.93;75.45;99839.09;5073972;28;20455;-79
2022/08/06 06:10:52;;;;;;;3.88;1.92;;;;;;;14.45;73.89;99831.53;5074098;28;20104;-78
2022/08/06 06:13:18;;;;;;;3.53;1.63;;;;;;;14.32;74.39;99857.94;5074043;28;20038;-78
2022/08/06 06:15:49;;;;;;;1.67;1.35;;;;;;;14.28;73.43;99849.53;5074270;28;20039;-78
2022/08/06 06:18:42;;;;;;;3.80;2.20;;;;;;;14.18;74.79;99865.50;5073719;28;20024;-78
2022/08/06 06:21:20;;;;;;;3.53;1.80;;;;;;;15.36;69.86;99848.66;5073988;28;20032;-78
2022/08/06 06:24:24;;;;;;;4.63;2.42;;;;;;;14.70;72.38;99866.75;5073911;28;20432;-78
2022/08/06 06:27:05;;;;;;;3.17;2.10;;;;;;;14.11;74.07;99868.34;5077185;28;20040;-78
2022/08/06 06:29:52;;;;;;;4.47;2.05;;;;;;;14.43;73.20;99871.25;5073533;28;20025;-78
2022/08/06 06:32:31;;;;;;;3.50;1.40;;;;;;;15.51;69.41;99859.59;5073679;28;20020;-78
2022/08/06 06:34:59;;;;;;;4.18;1.70;;;;;;;15.09;71.44;99877.44;5074718;28;20063;-78
2022/08/06 06:37:43;;;;;;;4.28;1.52;;;;;;;15.03;71.67;99865.81;5074132;28;20023;-78
2022/08/06 06:40:22;;;;;;;3.28;2.10;;;;;;;15.18;72.36;99886.69;5074820;28;20033;-78
2022/08/06 06:43:24;;;;;;;3.15;1.30;;;;;;;15.30;70.63;99869.31;5073248;28;20544;-78
2022/08/06 06:45:56;;;;;;;1.42;1.00;;;;;;;16.58;66.92;99886.25;5072644;28;20127;-78
2022/08/06 06:48:28;;;;;;;3.50;1.30;;;;;;;17.14;64.78;99885.41;5074643;28;20099;-79
2022/08/06 06:51:00;;;;;;;2.75;1.05;;;;;;;16.20;65.78;99874.69;5074498;28;20024;-79
2022/08/06 06:53:30;;;;;;;4.00;1.30;;;;;;;14.78;69.33;99882.47;5073516;28;20037;-78
2022/08/06 06:55:58;;;;;;;8.00;1.50;;;;;;;15.36;68.95;99891.69;5072984;28;20033;-78
2022/08/06 06:58:35;;;;;;;2.22;1.27;;;;;;;15.14;71.15;99896.31;5056396;28;20036;-78
2022/08/06 07:01:03;;;;;;;1.38;1.30;;;;;;;14.32;71.82;99876.72;5072757;28;20025;-78
2022/08/06 07:03:33;;;;;;;6.80;1.48;;;;;;;15.76;68.88;99892.13;5073370;28;20029;-79
2022/08/06 07:05:59;;;;;;;6.38;1.75;;;;;;;16.06;67.70;99895.06;5074229;28;20024;-78
2022/08/06 07:08:28;;;;;;;4.65;1.27;;;;;;;14.82;69.98;99872.84;5072610;28;20020;-78
2022/08/06 07:10:55;;;;;;;7.10;1.15;;;;;;;14.75;70.93;99907.16;5074272;28;20029;-78
2022/08/06 07:13:21;;;;;;;2.55;1.10;;;;;;;15.38;69.10;99892.25;5074349;28;20511;-78
2022/08/06 07:15:48;;;;;;;1.17;1.05;;;;;;;15.81;69.66;99897.56;5072753;28;20028;-78
2022/08/06 07:18:15;;;;;;;2.67;1.38;;;;;;;16.44;68.76;99891.25;5072652;28;20081;-78
2022/08/06 07:20:43;;;;;;;4.80;1.52;;;;;;;15.85;70.20;99909.44;5072808;28;20032;-78
2022/08/06 07:23:09;;;;;;;3.78;1.95;;;;;;;15.87;69.04;99901.91;5072648;28;20121;-78
2022/08/06 07:25:39;;;;;;;2.05;0.98;;;;;;;16.44;67.86;99910.13;5055889;28;20024;-78
2022/08/06 07:28:08;;;;;;;6.75;1.90;;;;;;;15.79;69.66;99918.53;5073677;28;20051;-78
2022/08/06 07:30:35;;;;;;;1.55;1.38;;;;;;;15.56;69.29;99894.63;5072560;28;20028;-78
2022/08/06 07:33:02;;;;;;;1.90;1.05;;;;;;;16.03;69.37;99908.22;5072559;28;20036;-78
2022/08/06 07:35:28;;;;;;;2.17;1.08;;;;;;;15.98;68.89;99911.69;5073659;28;20020;-78
2022/08/06 07:38:00;;;;;;;4.00;2.22;;;;;;;16.03;67.35;99911.72;5073226;28;20024;-78
2022/08/06 07:40:39;;;;;;;1.33;1.20;;;;;;;16.53;66.50;99910.47;5071653;28;20127;-78
2022/08/06 07:43:19;;;;;;;1.55;1.30;;;;;;;15.69;67.28;99904.97;5072071;28;20475;-78
2022/08/06 07:45:48;;;;;;;1.83;1.17;;;;;;;15.84;68.61;99913.19;5073440;28;20021;-78
2022/08/06 07:48:16;;;;;;;3.25;1.50;;;;;;;16.29;67.60;99927.00;5073192;28;20036;-78
2022/08/06 07:50:48;;;;;;;5.85;1.25;;;;;;;16.55;66.49;99919.09;5071587;28;20526;-78
2022/08/06 07:53:15;;;;;;;4.10;0.90;;;;;;;16.21;64.54;99930.16;5055481;28;20020;-78
2022/08/06 07:55:42;;;;;;;1.70;0.98;;;;;;;16.45;65.96;99925.22;5072136;28;20046;-78
2022/08/06 07:58:08;;;;;;;2.80;1.00;;;;;;;16.37;65.84;99931.91;5072385;28;20052;-79
2022/08/06 08:00:35;;;;;;;5.97;1.70;;;;;;;16.43;63.87;99921.97;5073121;28;20032;-78
2022/08/06 08:08:30;;;;;;;1.55;0.60;;;;;;;17.03;64.08;99897.22;5073609;28;20125;-78
2022/08/06 08:10:56;;;;;;;1.58;1.17;;;;;;;16.81;63.50;99918.16;5073255;28;20052;-79
2022/08/06 08:13:23;;;;;;;0.90;0.90;;;;;;;16.71;63.25;99923.53;5071940;28;20048;-78
2022/08/06 08:15:49;;;;;;;2.10;0.88;;;;;;;17.58;63.63;99926.28;5071971;28;20029;-78
2022/08/06 08:18:15;;;;;;;1.45;0.88;;;;;;;16.88;60.84;99914.19;5072742;28;20099;-78
2022/08/06 08:20:45;;;;;;;2.17;1.20;;;;;;;17.06;61.19;99915.56;5071581;28;20103;-79
2022/08/06 08:23:14;;;;;;;4.15;1.10;;;;;;;16.54;60.60;99929.06;5055029;28;20536;-78
2022/08/06 08:25:39;;;;;;;2.47;1.73;;;;;;;16.94;62.62;99907.72;5071591;28;20028;-78
2022/08/06 08:28:06;;;;;;;2.15;0.90;;;;;;;17.84;63.45;99920.63;5055124;28;20369;-78
2022/08/06 08:30:31;;;;;;;2.50;0.80;;;;;;;18.13;60.15;99922.81;5071694;28;20115;-79
2022/08/06 08:32:57;;;;;;;2.38;0.77;;;;;;;18.27;61.02;99910.34;5071186;28;20430;-79
2022/08/06 08:35:22;;;;;;;2.65;0.80;;;;;;;18.16;61.73;99920.34;5071332;28;20032;-79
2022/08/06 08:37:48;;;;;;;1.00;0.80;;;;;;;17.60;60.40;99924.13;5054583;28;20024;-79
2022/08/06 08:40:13;;;;;;;1.33;0.90;;;;;;;19.01;60.46;99932.88;5072175;28;20091;-78
2022/08/06 08:42:53;;;;;;;3.47;0.80;;;;;;;19.35;56.06;99931.13;5054222;28;20062;-78
2022/08/06 08:45:20;;;;;;;2.95;1.20;;;;;;;19.48;58.22;99923.50;5072404;28;20031;-79
2022/08/06 08:47:53;;;;;;;2.55;0.68;;;;;;;19.96;56.58;99926.09;5070709;28;20427;-79
2022/08/06 08:50:21;;;;;;;3.45;0.88;;;;;;;19.51;59.36;99914.78;5072056;28;20028;-79
2022/08/06 08:52:53;;;;;;;3.88;0.95;;;;;;;19.60;56.85;99932.06;5070890;28;20024;-79
2022/08/06 08:55:25;;;;;;;1.08;0.52;;;;;;;19.58;57.13;99931.53;5071325;28;20036;-79
2022/08/06 08:57:52;;;;;;;2.25;0.75;;;;;;;18.59;61.23;99924.38;5087365;28;20119;-78
2022/08/06 09:00:18;;;;;;;3.38;1.00;;;;;;;17.61;59.73;99940.03;5054571;28;20024;-79
2022/08/06 09:02:44;;;;;;;2.72;0.98;;;;;;;18.58;58.14;99923.56;5072170;28;20037;-78
2022/08/06 09:05:32;;;;;;;4.05;0.80;;;;;;;19.53;59.22;99943.22;5054723;28;20602;-79
2022/08/06 09:07:59;;;;;;;2.33;0.80;;;;;;;19.52;59.04;99933.50;5061425;28;20108;-79
2022/08/06 09:10:26;;;;;;;2.53;0.60;;;;;;;19.97;57.86;99935.06;5070780;28;20032;-79
2022/08/06 09:12:51;;;;;;;0.60;0.60;;;;;;;20.40;57.02;99922.50;5070808;28;20026;-78
2022/08/06 09:15:17;;;;;;;2.63;1.05;;;;;;;19.34;56.48;99925.97;5054328;28;20115;-79
2022/08/06 09:17:46;;;;;;;3.00;0.60;;;;;;;19.83;58.78;99928.66;5087321;28;20368;-79
2022/08/06 09:20:12;;;;;;;2.47;0.60;;;;;;;20.21;57.61;99902.63;5071232;28;20090;-79
2022/08/06 09:22:37;;;;;;;2.00;1.10;;;;;;;18.94;56.90;99935.06;5070511;28;20222;-79
2022/08/06 09:25:03;;;;;;;4.72;1.00;;;;;;;19.05;59.24;99936.66;5053818;28;20108;-79
2022/08/06 09:27:34;;;;;;;2.47;0.98;;;;;;;18.78;59.80;99932.72;5071672;28;20085;-79
2022/08/06 09:30:02;;;;;;;1.00;0.80;;;;;;;18.57;58.56;99924.66;5070500;28;20107;-78
2022/08/06 09:32:45;;;;;;;2.50;0.60;;;;;;;18.13;56.97;99930.91;5070603;28;20025;-78
2022/08/06 09:35:21;;;;;;;1.40;0.65;;;;;;;17.88;58.07;99929.00;5071908;28;20103;-78
2022/08/06 09:37:48;;;;;;;3.67;0.90;;;;;;;19.24;58.93;99937.66;5071409;28;20051;-78
2022/08/06 09:40:15;;;;;;;2.20;0.90;;;;;;;19.82;57.95;99919.72;5071320;28;20024;-79
2022/08/06 09:42:48;;;;;;;1.08;0.70;;;;;;;20.58;56.53;99924.47;5053820;28;20037;-79
2022/08/06 09:45:15;;;;;;;2.38;0.52;;;;;;;20.84;55.64;99921.19;5071521;28;20025;-79
2022/08/06 09:47:41;;;;;;;1.38;0.90;;;;;;;19.71;54.16;99922.78;5069980;28;20021;-79
2022/08/06 09:50:07;;;;;;;1.10;0.90;;;;;;;19.28;56.30;99925.19;5086862;28;20806;-79
2022/08/06 09:52:33;;;;;;;0.95;0.60;;;;;;;21.10;54.05;99920.94;5069977;28;20027;-79
2022/08/06 09:54:59;;;;;;;2.28;0.60;;;;;;;18.88;54.22;99906.44;5070231;28;20107;-78
2022/08/06 09:57:27;;;;;;;0.90;0.70;;;;;;;18.43;54.39;99912.75;5070001;28;20037;-78
2022/08/06 09:59:53;;;;;;;2.25;0.90;;;;;;;19.99;55.64;99909.28;5070413;28;20032;-79
2022/08/06 10:02:20;;;;;;;2.60;0.82;;;;;;;20.56;55.14;99923.97;5070201;28;20035;-78
2022/08/06 10:04:48;;;;;;;3.50;0.70;;;;;;;21.35;53.68;99918.69;5071258;28;20107;-79
2022/08/06 10:07:16;;;;;;;3.35;0.82;;;;;;;20.77;51.75;99912.59;5071299;28;20027;-79
2022/08/06 10:09:57;;;;;;;1.30;0.70;;;;;;;19.47;53.11;99925.38;5070317;28;20037;-79
2022/08/06 10:12:24;;;;;;;2.60;0.75;;;;;;;19.44;51.56;99923.22;5071654;28;20077;-79
2022/08/06 10:14:49;;;;;;;1.27;0.70;;;;;;;20.27;51.13;99913.13;5070239;28;20032;-79
2022/08/06 10:17:19;;;;;;;1.42;1.15;;;;;;;21.49;52.01;99914.13;5069831;28;20028;-79
2022/08/06 10:19:48;;;;;;;1.40;0.65;;;;;;;19.92;49.50;99921.56;5070035;28;20025;-79
2022/08/06 10:22:14;;;;;;;2.15;0.50;;;;;;;19.30;52.98;99923.03;5055727;28;20036;-79
2022/08/06 10:24:45;;;;;;;0.52;0.52;;;;;;;19.70;50.70;99913.84;5075265;28;20052;-79
2022/08/06 10:27:12;;;;;;;2.03;0.68;;;;;;;20.39;51.09;99910.03;5074857;28;20033;-79
2022/08/06 10:29:41;;;;;;;2.13;0.70;;;;;;;21.14;51.80;99908.41;5057045;28;20031;-79
2022/08/06 10:32:14;;;;;;;1.45;0.60;;;;;;;21.10;50.96;99929.09;5074943;28;20025;-79
2022/08/06 10:34:42;;;;;;;0.82;0.50;;;;;;;21.67;51.80;99918.75;5074882;28;20020;-77
2022/08/06 10:37:10;;;;;;;2.42;0.75;;;;;;;21.37;48.59;99919.19;5056249;28;20024;-79
2022/08/06 10:39:45;;;;;;;3.35;0.65;;;;;;;21.39;47.83;99908.03;5074093;28;20418;-79
2022/08/06 10:42:12;;;;;;;2.30;0.50;;;;;;;21.25;50.44;99912.59;5074472;28;20384;-79
2022/08/06 10:44:39;;;;;;;0.75;0.50;;;;;;;20.54;47.44;99902.56;5074598;28;20037;-79
2022/08/06 10:47:05;;;;;;;1.85;0.65;;;;;;;19.66;49.21;99914.72;5056456;28;20076;-79
2022/08/06 10:49:32;;;;;;;1.00;0.55;;;;;;;21.27;50.77;99904.97;5074441;28;20361;-79
2022/08/06 10:51:58;;;;;;;1.33;0.60;;;;;;;21.26;50.45;99917.72;5072742;28;20023;-79
2022/08/06 10:54:25;;;;;;;2.92;1.05;;;;;;;22.37;49.37;99903.19;5073056;28;20029;-79
2022/08/06 10:56:53;;;;;;;2.22;0.38;;;;;;;23.13;47.32;99907.16;5072629;28;20064;-79
2022/08/06 10:59:19;;;;;;;3.35;1.40;;;;;;;22.32;44.56;99918.81;5072801;28;20376;-79
2022/08/06 11:02:18;;;;;;;0.63;0.47;;;;;;;22.93;47.47;99922.00;5074522;28;20032;-79
2022/08/06 11:05:21;;;;;;;3.15;0.90;;;;;;;20.83;46.29;99914.19;5073192;28;20086;-79
2022/08/06 11:08:17;;;;;;;1.75;0.82;;;;;;;22.50;47.97;99914.41;5073939;28;20070;-79
2022/08/06 11:10:51;;;;;;;0.50;0.50;;;;;;;22.54;47.86;99907.25;5074337;28;20036;-79
2022/08/06 11:13:38;;;;;;;3.20;1.00;;;;;;;21.27;46.67;99913.91;5074162;28;20480;-79
2022/08/06 11:16:04;;;;;;;0.57;0.40;;;;;;;21.20;45.61;99894.47;5056269;28;20387;-79
2022/08/06 11:18:29;;;;;;;1.67;0.60;;;;;;;21.48;44.05;99907.09;5055907;28;20028;-79
2022/08/06 11:20:58;;;;;;;1.38;0.70;;;;;;;20.69;44.35;99894.25;5073001;28;20472;-79
2022/08/06 11:23:26;;;;;;;1.80;0.60;;;;;;;20.40;45.85;99912.44;5056702;28;20563;-79
2022/08/06 11:25:55;;;;;;;1.60;0.70;;;;;;;20.34;47.82;99916.31;5072653;28;20620;-79
2022/08/06 11:28:40;;;;;;;1.05;0.70;;;;;;;20.89;46.35;99910.28;5072501;28;20036;-79
2022/08/06 11:31:07;;;;;;;2.15;0.50;;;;;;;22.33;48.00;99913.06;5072365;28;20047;-79
2022/08/06 11:33:32;;;;;;;2.20;0.80;;;;;;;21.64;48.76;99908.47;5054999;28;20028;-79
2022/08/06 11:36:14;;;;;;;0.50;0.50;;;;;;;22.42;45.05;99906.94;5072601;28;20119;-79
2022/08/06 11:38:42;;;;;;;1.23;0.40;;;;;;;23.26;45.79;99908.28;5072811;28;20479;-79
2022/08/06 11:41:24;;;;;;;2.47;0.50;;;;;;;23.20;44.97;99880.31;5072286;28;20443;-79
2022/08/06 11:43:53;;;;;;;0.70;0.52;;;;;;;24.07;43.79;99896.31;5073560;28;20115;-79
2022/08/06 11:46:18;;;;;;;0.85;0.63;;;;;;;23.75;42.00;99895.41;5073482;28;20024;-79
2022/08/06 11:48:59;;;;;;;0.47;0.47;;;;;;;24.18;42.49;99906.66;5071771;28;20032;-79
2022/08/06 11:51:44;;;;;;;1.65;0.30;;;;;;;24.87;43.72;99905.09;5072370;28;20024;-79
2022/08/06 11:54:18;;;;;;;2.30;0.57;;;;;;;24.98;42.30;99900.94;5072642;28;20032;-79